Terminal Aerodrome Forecast
Issued by NWS

Home | Current Version | Previous Version | Text Only | Print | Product List | Glossary On
Versions: 1 2 3 4 5 6 7 8 9 10 11 12 13
176
FTUS46 KPDT 251137
TAFALW
TAF
KALW 251137Z 2512/2612 10007KT P6SM SKC
     FM251900 27008G15KT P6SM SKC
     FM260600 12006KT P6SM FEW150 SCT250=

USA.gov is the U.S. government's official web portal to all federal, state and local government web resources and services.